sensor_id;sensor_type;location;lat;lon;timestamp;temperature;humidity
8093;DHT22;4089;52.420;13.334;2023-04-24T00:01:07;11.60;99.90
8093;DHT22;4089;52.420;13.334;2023-04-24T00:03:35;11.60;99.90
8093;DHT22;4089;52.420;13.334;2023-04-24T00:06:02;11.50;99.90
8093;DHT22;4089;52.420;13.334;2023-04-24T00:08:29;11.50;99.90
8093;DHT22;4089;52.420;13.334;2023-04-24T00:10:56;11.50;99.90
8093;DHT22;4089;52.420;13.334;2023-04-24T00:13:23;11.50;99.90
8093;DHT22;4089;52.420;13.334;2023-04-24T00:15:50;11.50;99.90
8093;DHT22;4089;52.420;13.334;2023-04-24T00:18:17;11.50;99.90
8093;DHT22;4089;52.420;13.334;2023-04-24T00:20:44;11.50;99.90
8093;DHT22;4089;52.420;13.334;2023-04-24T00:23:11;11.50;99.90
8093;DHT22;4089;52.420;13.334;2023-04-24T00:25:38;11.40;99.90
8093;DHT22;4089;52.420;13.334;2023-04-24T00:28:06;11.40;99.90
8093;DHT22;4089;52.420;13.334;2023-04-24T00:30:33;11.40;99.90
8093;DHT22;4089;52.420;13.334;2023-04-24T00:32:59;11.40;99.90
8093;DHT22;4089;52.420;13.334;2023-04-24T00:35:26;11.40;99.90
8093;DHT22;4089;52.420;13.334;2023-04-24T00:37:53;11.40;99.90
8093;DHT22;4089;52.420;13.334;2023-04-24T00:40:20;11.40;99.90
8093;DHT22;4089;52.420;13.334;2023-04-24T00:42:47;11.40;99.90
8093;DHT22;4089;52.420;13.334;2023-04-24T00:45:14;11.40;99.90
8093;DHT22;4089;52.420;13.334;2023-04-24T00:47:41;11.40;99.90
8093;DHT22;4089;52.420;13.334;2023-04-24T00:50:08;11.40;99.90
8093;DHT22;4089;52.420;13.334;2023-04-24T00:52:35;11.40;99.90
8093;DHT22;4089;52.420;13.334;2023-04-24T00:55:04;11.40;99.90
8093;DHT22;4089;52.420;13.334;2023-04-24T00:57:30;11.50;99.90
8093;DHT22;4089;52.420;13.334;2023-04-24T00:59:57;11.50;99.90
8093;DHT22;4089;52.420;13.334;2023-04-24T01:02:24;11.50;99.90
8093;DHT22;4089;52.420;13.334;2023-04-24T01:04:52;11.50;99.90
8093;DHT22;4089;52.420;13.334;2023-04-24T01:07:20;11.50;99.90
8093;DHT22;4089;52.420;13.334;2023-04-24T01:09:48;11.50;99.90
8093;DHT22;4089;52.420;13.334;2023-04-24T01:12:18;11.60;99.90
8093;DHT22;4089;52.420;13.334;2023-04-24T01:14:45;11.60;99.90
8093;DHT22;4089;52.420;13.334;2023-04-24T01:17:12;11.60;99.90
8093;DHT22;4089;52.420;13.334;2023-04-24T01:19:39;11.60;99.90
8093;DHT22;4089;52.420;13.334;2023-04-24T01:22:11;11.70;99.90
8093;DHT22;4089;52.420;13.334;2023-04-24T01:24:38;11.70;99.90
8093;DHT22;4089;52.420;13.334;2023-04-24T01:27:05;11.70;99.90
8093;DHT22;4089;52.420;13.334;2023-04-24T01:29:32;11.70;99.90
8093;DHT22;4089;52.420;13.334;2023-04-24T01:32:00;11.80;99.90
8093;DHT22;4089;52.420;13.334;2023-04-24T01:34:27;11.80;99.90
8093;DHT22;4089;52.420;13.334;2023-04-24T01:36:54;11.80;99.90
8093;DHT22;4089;52.420;13.334;2023-04-24T01:39:21;11.80;99.90
8093;DHT22;4089;52.420;13.334;2023-04-24T01:41:49;11.80;99.90
8093;DHT22;4089;52.420;13.334;2023-04-24T01:44:17;11.80;99.90
8093;DHT22;4089;52.420;13.334;2023-04-24T01:46:44;11.80;99.90
8093;DHT22;4089;52.420;13.334;2023-04-24T01:49:11;11.80;99.90
8093;DHT22;4089;52.420;13.334;2023-04-24T01:51:38;11.70;99.90
8093;DHT22;4089;52.420;13.334;2023-04-24T01:54:05;11.70;99.90
8093;DHT22;4089;52.420;13.334;2023-04-24T01:56:36;11.70;99.90
8093;DHT22;4089;52.420;13.334;2023-04-24T01:59:07;11.70;99.90
8093;DHT22;4089;52.420;13.334;2023-04-24T02:01:36;11.60;99.90
8093;DHT22;4089;52.420;13.334;2023-04-24T02:04:03;11.60;99.90
8093;DHT22;4089;52.420;13.334;2023-04-24T02:06:31;11.60;99.90
8093;DHT22;4089;52.420;13.334;2023-04-24T02:08:59;11.50;99.90
8093;DHT22;4089;52.420;13.334;2023-04-24T02:11:26;11.60;99.90
8093;DHT22;4089;52.420;13.334;2023-04-24T02:13:53;11.60;99.90
8093;DHT22;4089;52.420;13.334;2023-04-24T02:16:20;11.50;99.90
8093;DHT22;4089;52.420;13.334;2023-04-24T02:18:47;11.50;99.90
8093;DHT22;4089;52.420;13.334;2023-04-24T02:21:13;11.50;99.90
8093;DHT22;4089;52.420;13.334;2023-04-24T02:23:41;11.50;99.90
8093;DHT22;4089;52.420;13.334;2023-04-24T02:26:07;11.50;99.90
8093;DHT22;4089;52.420;13.334;2023-04-24T02:28:34;11.50;99.90
8093;DHT22;4089;52.420;13.334;2023-04-24T02:31:01;11.40;99.90
8093;DHT22;4089;52.420;13.334;2023-04-24T02:33:28;11.40;99.90
8093;DHT22;4089;52.420;13.334;2023-04-24T02:35:55;11.40;99.90
8093;DHT22;4089;52.420;13.334;2023-04-24T02:38:22;11.40;99.90
8093;DHT22;4089;52.420;13.334;2023-04-24T02:40:48;11.40;99.90
8093;DHT22;4089;52.420;13.334;2023-04-24T02:43:15;11.40;99.90
8093;DHT22;4089;52.420;13.334;2023-04-24T02:45:42;11.40;99.90
8093;DHT22;4089;52.420;13.334;2023-04-24T02:48:09;11.40;99.90
8093;DHT22;4089;52.420;13.334;2023-04-24T02:50:36;11.50;99.90
8093;DHT22;4089;52.420;13.334;2023-04-24T02:53:02;11.50;99.90
8093;DHT22;4089;52.420;13.334;2023-04-24T02:55:29;11.50;99.90
8093;DHT22;4089;52.420;13.334;2023-04-24T02:57:56;11.50;99.90
8093;DHT22;4089;52.420;13.334;2023-04-24T03:00:23;11.50;99.90
8093;DHT22;4089;52.420;13.334;2023-04-24T03:02:50;11.50;99.90
8093;DHT22;4089;52.420;13.334;2023-04-24T03:05:17;11.60;99.90
8093;DHT22;4089;52.420;13.334;2023-04-24T03:07:44;11.50;99.90
8093;DHT22;4089;52.420;13.334;2023-04-24T03:10:12;11.50;99.90
8093;DHT22;4089;52.420;13.334;2023-04-24T03:12:38;11.50;99.90
8093;DHT22;4089;52.420;13.334;2023-04-24T03:15:06;11.50;99.90
8093;DHT22;4089;52.420;13.334;2023-04-24T03:17:33;11.60;99.90
8093;DHT22;4089;52.420;13.334;2023-04-24T03:20:00;11.60;99.90
8093;DHT22;4089;52.420;13.334;2023-04-24T03:22:26;11.60;99.90
8093;DHT22;4089;52.420;13.334;2023-04-24T03:24:53;11.70;99.90
8093;DHT22;4089;52.420;13.334;2023-04-24T03:27:21;11.70;99.90
8093;DHT22;4089;52.420;13.334;2023-04-24T03:29:48;11.80;99.90
8093;DHT22;4089;52.420;13.334;2023-04-24T03:32:14;11.80;99.90
8093;DHT22;4089;52.420;13.334;2023-04-24T03:34:41;11.80;99.90
8093;DHT22;4089;52.420;13.334;2023-04-24T03:37:08;11.80;99.90
8093;DHT22;4089;52.420;13.334;2023-04-24T03:39:35;11.80;99.90
8093;DHT22;4089;52.420;13.334;2023-04-24T03:42:01;11.80;99.90
8093;DHT22;4089;52.420;13.334;2023-04-24T03:44:28;11.80;99.90
8093;DHT22;4089;52.420;13.334;2023-04-24T03:46:55;11.90;99.90
8093;DHT22;4089;52.420;13.334;2023-04-24T03:49:22;11.80;99.90
8093;DHT22;4089;52.420;13.334;2023-04-24T03:51:49;11.90;99.90
8093;DHT22;4089;52.420;13.334;2023-04-24T03:54:15;11.80;99.90
8093;DHT22;4089;52.420;13.334;2023-04-24T03:56:42;11.80;99.90
8093;DHT22;4089;52.420;13.334;2023-04-24T03:59:09;11.90;99.90
8093;DHT22;4089;52.420;13.334;2023-04-24T04:01:36;11.90;99.90
8093;DHT22;4089;52.420;13.334;2023-04-24T04:04:04;11.90;99.90
8093;DHT22;4089;52.420;13.334;2023-04-24T04:06:31;11.80;99.90
8093;DHT22;4089;52.420;13.334;2023-04-24T04:08:58;11.90;99.90
8093;DHT22;4089;52.420;13.334;2023-04-24T04:11:26;11.90;99.90
8093;DHT22;4089;52.420;13.334;2023-04-24T04:13:53;12.00;99.90
8093;DHT22;4089;52.420;13.334;2023-04-24T04:16:19;12.00;99.90
8093;DHT22;4089;52.420;13.334;2023-04-24T04:18:46;12.00;99.90
8093;DHT22;4089;52.420;13.334;2023-04-24T04:21:13;12.00;99.90
8093;DHT22;4089;52.420;13.334;2023-04-24T04:23:40;12.00;99.90
8093;DHT22;4089;52.420;13.334;2023-04-24T04:26:06;12.00;99.90
8093;DHT22;4089;52.420;13.334;2023-04-24T04:28:34;12.00;99.90
8093;DHT22;4089;52.420;13.334;2023-04-24T04:31:01;12.00;99.90
8093;DHT22;4089;52.420;13.334;2023-04-24T04:33:28;12.00;99.90
8093;DHT22;4089;52.420;13.334;2023-04-24T04:35:55;12.00;99.90
8093;DHT22;4089;52.420;13.334;2023-04-24T04:38:25;12.10;99.90
8093;DHT22;4089;52.420;13.334;2023-04-24T04:40:56;12.10;99.90
8093;DHT22;4089;52.420;13.334;2023-04-24T04:43:24;12.10;99.90
8093;DHT22;4089;52.420;13.334;2023-04-24T04:45:52;12.10;99.90
8093;DHT22;4089;52.420;13.334;2023-04-24T04:48:19;12.10;99.90
8093;DHT22;4089;52.420;13.334;2023-04-24T04:50:46;12.20;99.90
8093;DHT22;4089;52.420;13.334;2023-04-24T04:53:13;12.30;99.90
8093;DHT22;4089;52.420;13.334;2023-04-24T04:55:40;12.30;99.90
8093;DHT22;4089;52.420;13.334;2023-04-24T04:58:07;12.40;99.90
8093;DHT22;4089;52.420;13.334;2023-04-24T05:00:33;12.30;99.90
8093;DHT22;4089;52.420;13.334;2023-04-24T05:03:03;12.30;99.90
8093;DHT22;4089;52.420;13.334;2023-04-24T05:05:46;12.40;99.90
8093;DHT22;4089;52.420;13.334;2023-04-24T05:08:13;12.40;99.90
8093;DHT22;4089;52.420;13.334;2023-04-24T05:10:53;12.40;99.90
8093;DHT22;4089;52.420;13.334;2023-04-24T05:13:19;12.50;99.90
8093;DHT22;4089;52.420;13.334;2023-04-24T05:15:57;12.50;99.90
8093;DHT22;4089;52.420;13.334;2023-04-24T05:18:24;12.50;99.90
8093;DHT22;4089;52.420;13.334;2023-04-24T05:20:51;12.60;99.90
8093;DHT22;4089;52.420;13.334;2023-04-24T05:23:18;12.60;99.90
8093;DHT22;4089;52.420;13.334;2023-04-24T05:25:45;12.70;99.90
8093;DHT22;4089;52.420;13.334;2023-04-24T05:28:12;12.70;99.90
8093;DHT22;4089;52.420;13.334;2023-04-24T05:30:39;12.80;99.90
8093;DHT22;4089;52.420;13.334;2023-04-24T05:33:06;12.80;99.90
8093;DHT22;4089;52.420;13.334;2023-04-24T05:35:33;12.80;99.90
8093;DHT22;4089;52.420;13.334;2023-04-24T05:38:00;12.90;99.90
8093;DHT22;4089;52.420;13.334;2023-04-24T05:40:27;13.00;99.90
8093;DHT22;4089;52.420;13.334;2023-04-24T05:42:54;13.00;99.90
8093;DHT22;4089;52.420;13.334;2023-04-24T05:45:21;13.10;99.90
8093;DHT22;4089;52.420;13.334;2023-04-24T05:47:48;13.10;99.90
8093;DHT22;4089;52.420;13.334;2023-04-24T05:50:14;13.00;99.90
8093;DHT22;4089;52.420;13.334;2023-04-24T05:52:41;13.00;99.90
8093;DHT22;4089;52.420;13.334;2023-04-24T05:55:08;13.00;99.90
8093;DHT22;4089;52.420;13.334;2023-04-24T05:57:35;13.00;99.90
8093;DHT22;4089;52.420;13.334;2023-04-24T06:00:02;13.10;99.90
8093;DHT22;4089;52.420;13.334;2023-04-24T06:02:30;13.20;99.90
8093;DHT22;4089;52.420;13.334;2023-04-24T06:04:59;13.20;99.90
8093;DHT22;4089;52.420;13.334;2023-04-24T06:07:26;13.30;99.90
8093;DHT22;4089;52.420;13.334;2023-04-24T06:09:53;13.40;99.90
8093;DHT22;4089;52.420;13.334;2023-04-24T06:12:20;13.40;99.90
8093;DHT22;4089;52.420;13.334;2023-04-24T06:14:47;13.50;99.90
8093;DHT22;4089;52.420;13.334;2023-04-24T06:17:14;13.50;99.90
8093;DHT22;4089;52.420;13.334;2023-04-24T06:19:41;13.40;99.90
8093;DHT22;4089;52.420;13.334;2023-04-24T06:22:08;13.50;99.90
8093;DHT22;4089;52.420;13.334;2023-04-24T06:24:36;13.50;99.90
8093;DHT22;4089;52.420;13.334;2023-04-24T06:27:03;13.60;99.90
8093;DHT22;4089;52.420;13.334;2023-04-24T06:29:30;13.70;99.90
8093;DHT22;4089;52.420;13.334;2023-04-24T06:31:56;13.70;99.90
8093;DHT22;4089;52.420;13.334;2023-04-24T06:34:23;13.90;99.90
8093;DHT22;4089;52.420;13.334;2023-04-24T06:36:50;14.10;99.90
8093;DHT22;4089;52.420;13.334;2023-04-24T06:39:17;14.20;99.90
8093;DHT22;4089;52.420;13.334;2023-04-24T06:41:44;14.30;99.90
8093;DHT22;4089;52.420;13.334;2023-04-24T06:44:10;14.40;99.90
8093;DHT22;4089;52.420;13.334;2023-04-24T06:46:37;14.40;99.90
8093;DHT22;4089;52.420;13.334;2023-04-24T06:49:07;14.50;99.90
8093;DHT22;4089;52.420;13.334;2023-04-24T06:51:34;14.50;99.90
8093;DHT22;4089;52.420;13.334;2023-04-24T06:54:00;14.60;99.90
8093;DHT22;4089;52.420;13.334;2023-04-24T06:56:28;14.60;99.90
8093;DHT22;4089;52.420;13.334;2023-04-24T06:58:56;14.70;99.90
8093;DHT22;4089;52.420;13.334;2023-04-24T07:01:22;14.80;99.90
8093;DHT22;4089;52.420;13.334;2023-04-24T07:03:49;14.80;99.90
8093;DHT22;4089;52.420;13.334;2023-04-24T07:06:16;15.00;99.90
8093;DHT22;4089;52.420;13.334;2023-04-24T07:08:47;15.10;99.90
8093;DHT22;4089;52.420;13.334;2023-04-24T07:11:14;15.20;99.90
8093;DHT22;4089;52.420;13.334;2023-04-24T07:13:41;15.40;99.90
8093;DHT22;4089;52.420;13.334;2023-04-24T07:16:08;15.40;99.90
8093;DHT22;4089;52.420;13.334;2023-04-24T07:18:36;15.50;99.90
8093;DHT22;4089;52.420;13.334;2023-04-24T07:21:03;15.50;99.90
8093;DHT22;4089;52.420;13.334;2023-04-24T07:23:30;15.50;99.90
8093;DHT22;4089;52.420;13.334;2023-04-24T07:25:57;15.60;99.90
8093;DHT22;4089;52.420;13.334;2023-04-24T07:28:24;15.60;99.90
8093;DHT22;4089;52.420;13.334;2023-04-24T07:30:51;15.60;99.90
8093;DHT22;4089;52.420;13.334;2023-04-24T07:33:20;15.40;99.90
8093;DHT22;4089;52.420;13.334;2023-04-24T07:35:47;15.50;99.90
8093;DHT22;4089;52.420;13.334;2023-04-24T07:38:14;15.50;99.90
8093;DHT22;4089;52.420;13.334;2023-04-24T07:40:41;15.50;99.90
8093;DHT22;4089;52.420;13.334;2023-04-24T07:43:08;15.60;99.90
8093;DHT22;4089;52.420;13.334;2023-04-24T07:45:35;15.60;99.90
8093;DHT22;4089;52.420;13.334;2023-04-24T07:48:04;15.70;99.90
8093;DHT22;4089;52.420;13.334;2023-04-24T07:50:31;15.70;99.90
8093;DHT22;4089;52.420;13.334;2023-04-24T07:52:58;15.70;99.90
8093;DHT22;4089;52.420;13.334;2023-04-24T07:55:24;15.80;99.90
8093;DHT22;4089;52.420;13.334;2023-04-24T07:57:53;16.00;99.90
8093;DHT22;4089;52.420;13.334;2023-04-24T08:00:20;15.90;99.90
8093;DHT22;4089;52.420;13.334;2023-04-24T08:02:47;16.00;99.90
8093;DHT22;4089;52.420;13.334;2023-04-24T08:05:14;16.20;99.90
8093;DHT22;4089;52.420;13.334;2023-04-24T08:07:41;16.30;99.90
8093;DHT22;4089;52.420;13.334;2023-04-24T08:10:12;16.40;99.90
8093;DHT22;4089;52.420;13.334;2023-04-24T08:12:40;16.40;99.90
8093;DHT22;4089;52.420;13.334;2023-04-24T08:15:07;16.40;99.90
8093;DHT22;4089;52.420;13.334;2023-04-24T08:17:35;16.50;99.90
8093;DHT22;4089;52.420;13.334;2023-04-24T08:20:03;16.60;99.90
8093;DHT22;4089;52.420;13.334;2023-04-24T08:22:31;16.60;99.90
8093;DHT22;4089;52.420;13.334;2023-04-24T08:24:59;16.60;99.90
8093;DHT22;4089;52.420;13.334;2023-04-24T08:27:26;16.80;99.90
8093;DHT22;4089;52.420;13.334;2023-04-24T08:29:54;16.90;99.90
8093;DHT22;4089;52.420;13.334;2023-04-24T08:32:21;17.20;99.90
8093;DHT22;4089;52.420;13.334;2023-04-24T08:34:48;17.40;99.90
8093;DHT22;4089;52.420;13.334;2023-04-24T08:37:15;17.30;99.90
8093;DHT22;4089;52.420;13.334;2023-04-24T08:39:42;17.30;99.90
8093;DHT22;4089;52.420;13.334;2023-04-24T08:42:11;17.30;99.90
8093;DHT22;4089;52.420;13.334;2023-04-24T08:44:39;17.60;99.90
8093;DHT22;4089;52.420;13.334;2023-04-24T08:47:07;17.60;99.90
8093;DHT22;4089;52.420;13.334;2023-04-24T08:49:36;17.40;99.90
8093;DHT22;4089;52.420;13.334;2023-04-24T08:52:04;17.60;99.90
8093;DHT22;4089;52.420;13.334;2023-04-24T08:54:33;17.50;99.90
8093;DHT22;4089;52.420;13.334;2023-04-24T08:57:02;17.60;99.90
8093;DHT22;4089;52.420;13.334;2023-04-24T08:59:30;17.50;99.90
8093;DHT22;4089;52.420;13.334;2023-04-24T09:01:57;17.30;99.90
8093;DHT22;4089;52.420;13.334;2023-04-24T09:04:25;17.30;99.90
8093;DHT22;4089;52.420;13.334;2023-04-24T09:06:57;17.40;99.90
8093;DHT22;4089;52.420;13.334;2023-04-24T09:09:25;17.50;99.90
8093;DHT22;4089;52.420;13.334;2023-04-24T09:11:52;17.10;99.90
8093;DHT22;4089;52.420;13.334;2023-04-24T09:14:22;17.20;99.90
8093;DHT22;4089;52.420;13.334;2023-04-24T09:16:51;17.40;99.90
8093;DHT22;4089;52.420;13.334;2023-04-24T09:19:17;17.40;99.90
8093;DHT22;4089;52.420;13.334;2023-04-24T09:21:47;17.40;99.90
8093;DHT22;4089;52.420;13.334;2023-04-24T09:24:21;17.40;99.90
8093;DHT22;4089;52.420;13.334;2023-04-24T09:26:58;17.40;99.90
8093;DHT22;4089;52.420;13.334;2023-04-24T09:29:25;17.30;99.90
8093;DHT22;4089;52.420;13.334;2023-04-24T09:31:52;17.30;99.90
8093;DHT22;4089;52.420;13.334;2023-04-24T09:34:23;17.30;99.90
8093;DHT22;4089;52.420;13.334;2023-04-24T09:36:51;17.20;99.90
8093;DHT22;4089;52.420;13.334;2023-04-24T09:39:18;17.20;99.90
8093;DHT22;4089;52.420;13.334;2023-04-24T09:41:54;17.30;99.90
8093;DHT22;4089;52.420;13.334;2023-04-24T09:44:26;17.30;99.90
8093;DHT22;4089;52.420;13.334;2023-04-24T09:46:57;17.50;99.90
8093;DHT22;4089;52.420;13.334;2023-04-24T09:49:31;17.40;99.90
8093;DHT22;4089;52.420;13.334;2023-04-24T09:52:08;17.40;99.90
8093;DHT22;4089;52.420;13.334;2023-04-24T09:54:35;17.30;99.90
8093;DHT22;4089;52.420;13.334;2023-04-24T09:57:03;17.40;99.90
8093;DHT22;4089;52.420;13.334;2023-04-24T09:59:30;17.50;99.90
8093;DHT22;4089;52.420;13.334;2023-04-24T10:01:57;17.60;99.90
8093;DHT22;4089;52.420;13.334;2023-04-24T10:04:27;17.50;99.90
8093;DHT22;4089;52.420;13.334;2023-04-24T10:06:56;17.50;99.90
8093;DHT22;4089;52.420;13.334;2023-04-24T10:09:25;17.70;99.90
8093;DHT22;4089;52.420;13.334;2023-04-24T10:11:53;17.80;99.90
8093;DHT22;4089;52.420;13.334;2023-04-24T10:14:23;17.60;99.90
8093;DHT22;4089;52.420;13.334;2023-04-24T10:16:53;17.60;99.90
8093;DHT22;4089;52.420;13.334;2023-04-24T10:19:20;17.60;99.90
8093;DHT22;4089;52.420;13.334;2023-04-24T10:21:47;17.40;99.90
8093;DHT22;4089;52.420;13.334;2023-04-24T10:24:18;17.50;99.90
8093;DHT22;4089;52.420;13.334;2023-04-24T10:26:47;17.40;99.90
8093;DHT22;4089;52.420;13.334;2023-04-24T10:29:19;17.30;99.90
8093;DHT22;4089;52.420;13.334;2023-04-24T10:31:47;17.30;99.90
8093;DHT22;4089;52.420;13.334;2023-04-24T10:34:16;17.10;99.90
8093;DHT22;4089;52.420;13.334;2023-04-24T10:36:48;17.10;99.90
8093;DHT22;4089;52.420;13.334;2023-04-24T10:39:16;17.00;99.90
8093;DHT22;4089;52.420;13.334;2023-04-24T10:41:44;16.90;99.90
8093;DHT22;4089;52.420;13.334;2023-04-24T10:44:13;16.70;99.90
8093;DHT22;4089;52.420;13.334;2023-04-24T10:46:44;16.70;99.90
8093;DHT22;4089;52.420;13.334;2023-04-24T10:49:11;16.80;99.90
8093;DHT22;4089;52.420;13.334;2023-04-24T10:51:49;16.90;99.90
8093;DHT22;4089;52.420;13.334;2023-04-24T10:54:44;16.90;99.90
8093;DHT22;4089;52.420;13.334;2023-04-24T11:02:39;18.00;99.90
8093;DHT22;4089;52.420;13.334;2023-04-24T11:05:10;18.10;99.90
8093;DHT22;4089;52.420;13.334;2023-04-24T11:10:46;18.10;99.90
8093;DHT22;4089;52.420;13.334;2023-04-24T11:13:17;17.90;99.90
8093;DHT22;4089;52.420;13.334;2023-04-24T11:16:20;17.90;99.90
8093;DHT22;4089;52.420;13.334;2023-04-24T11:18:52;18.00;99.90
8093;DHT22;4089;52.420;13.334;2023-04-24T11:21:40;17.90;99.90
8093;DHT22;4089;52.420;13.334;2023-04-24T11:27:13;17.10;99.90
8093;DHT22;4089;52.420;13.334;2023-04-24T11:35:00;16.70;99.90
8093;DHT22;4089;52.420;13.334;2023-04-24T11:37:36;16.80;99.90
8093;DHT22;4089;52.420;13.334;2023-04-24T11:40:10;17.20;99.90
8093;DHT22;4089;52.420;13.334;2023-04-24T11:42:45;17.20;99.90
8093;DHT22;4089;52.420;13.334;2023-04-24T11:45:24;17.40;99.90
8093;DHT22;4089;52.420;13.334;2023-04-24T11:47:51;17.50;99.90
8093;DHT22;4089;52.420;13.334;2023-04-24T11:50:22;17.80;99.90
8093;DHT22;4089;52.420;13.334;2023-04-24T11:52:50;17.80;99.90
8093;DHT22;4089;52.420;13.334;2023-04-24T11:57:48;17.80;99.90
8093;DHT22;4089;52.420;13.334;2023-04-24T12:02:49;18.20;99.90
8093;DHT22;4089;52.420;13.334;2023-04-24T12:05:24;18.50;99.90
8093;DHT22;4089;52.420;13.334;2023-04-24T12:07:53;18.80;99.90
8093;DHT22;4089;52.420;13.334;2023-04-24T12:10:21;19.00;99.90
8093;DHT22;4089;52.420;13.334;2023-04-24T12:12:49;19.10;99.90
8093;DHT22;4089;52.420;13.334;2023-04-24T12:15:19;19.20;99.90
8093;DHT22;4089;52.420;13.334;2023-04-24T12:17:47;19.20;99.90
8093;DHT22;4089;52.420;13.334;2023-04-24T12:20:14;19.00;99.90
8093;DHT22;4089;52.420;13.334;2023-04-24T12:22:49;18.60;99.90
8093;DHT22;4089;52.420;13.334;2023-04-24T12:25:18;18.70;99.90
8093;DHT22;4089;52.420;13.334;2023-04-24T12:27:46;18.50;98.60
8093;DHT22;4089;52.420;13.334;2023-04-24T12:30:15;18.30;96.10
8093;DHT22;4089;52.420;13.334;2023-04-24T12:32:47;18.40;95.60
8093;DHT22;4089;52.420;13.334;2023-04-24T12:35:19;18.50;93.20
8093;DHT22;4089;52.420;13.334;2023-04-24T12:37:47;18.50;92.80
8093;DHT22;4089;52.420;13.334;2023-04-24T12:40:14;18.50;92.40
8093;DHT22;4089;52.420;13.334;2023-04-24T12:42:49;18.60;92.10
8093;DHT22;4089;52.420;13.334;2023-04-24T12:45:18;18.50;91.20
8093;DHT22;4089;52.420;13.334;2023-04-24T12:47:46;18.40;91.10
8093;DHT22;4089;52.420;13.334;2023-04-24T12:50:14;18.40;90.20
8093;DHT22;4089;52.420;13.334;2023-04-24T12:52:43;18.40;88.90
8093;DHT22;4089;52.420;13.334;2023-04-24T12:55:10;18.50;88.80
8093;DHT22;4089;52.420;13.334;2023-04-24T12:57:39;18.80;84.50
8093;DHT22;4089;52.420;13.334;2023-04-24T13:00:07;18.90;84.10
8093;DHT22;4089;52.420;13.334;2023-04-24T13:02:35;18.80;80.80
8093;DHT22;4089;52.420;13.334;2023-04-24T13:05:03;18.60;78.20
8093;DHT22;4089;52.420;13.334;2023-04-24T13:07:30;18.70;78.40
8093;DHT22;4089;52.420;13.334;2023-04-24T13:09:57;18.80;74.90
8093;DHT22;4089;52.420;13.334;2023-04-24T13:12:26;18.90;76.80
8093;DHT22;4089;52.420;13.334;2023-04-24T13:14:53;19.10;77.60
8093;DHT22;4089;52.420;13.334;2023-04-24T13:17:21;19.20;72.60
8093;DHT22;4089;52.420;13.334;2023-04-24T13:19:49;19.20;71.80
8093;DHT22;4089;52.420;13.334;2023-04-24T13:22:17;19.00;67.00
8093;DHT22;4089;52.420;13.334;2023-04-24T13:24:47;18.80;67.20
8093;DHT22;4089;52.420;13.334;2023-04-24T13:27:17;19.00;66.30
8093;DHT22;4089;52.420;13.334;2023-04-24T13:29:44;18.90;61.00
8093;DHT22;4089;52.420;13.334;2023-04-24T13:32:11;18.80;60.10
8093;DHT22;4089;52.420;13.334;2023-04-24T13:34:38;18.50;61.00
8093;DHT22;4089;52.420;13.334;2023-04-24T13:37:05;18.50;62.10
8093;DHT22;4089;52.420;13.334;2023-04-24T13:39:33;18.60;64.00
8093;DHT22;4089;52.420;13.334;2023-04-24T13:41:59;18.60;67.30
8093;DHT22;4089;52.420;13.334;2023-04-24T13:44:30;18.70;69.70
8093;DHT22;4089;52.420;13.334;2023-04-24T13:46:57;19.00;63.80
8093;DHT22;4089;52.420;13.334;2023-04-24T13:49:25;19.00;63.90
8093;DHT22;4089;52.420;13.334;2023-04-24T13:51:52;18.60;66.00
8093;DHT22;4089;52.420;13.334;2023-04-24T13:54:19;18.30;66.50
8093;DHT22;4089;52.420;13.334;2023-04-24T13:56:46;18.30;66.10
8093;DHT22;4089;52.420;13.334;2023-04-24T13:59:13;18.40;68.60
8093;DHT22;4089;52.420;13.334;2023-04-24T14:01:40;18.70;69.10
8093;DHT22;4089;52.420;13.334;2023-04-24T14:04:06;18.70;65.80
8093;DHT22;4089;52.420;13.334;2023-04-24T14:06:33;18.70;65.00
8093;DHT22;4089;52.420;13.334;2023-04-24T14:09:00;18.90;64.40
8093;DHT22;4089;52.420;13.334;2023-04-24T14:11:27;19.60;61.70
8093;DHT22;4089;52.420;13.334;2023-04-24T14:13:54;19.60;59.20
8093;DHT22;4089;52.420;13.334;2023-04-24T14:16:22;19.90;62.20
8093;DHT22;4089;52.420;13.334;2023-04-24T14:18:49;20.10;56.20
8093;DHT22;4089;52.420;13.334;2023-04-24T14:21:16;20.10;53.70
8093;DHT22;4089;52.420;13.334;2023-04-24T14:23:43;19.80;55.00
8093;DHT22;4089;52.420;13.334;2023-04-24T14:26:11;19.90;55.30
8093;DHT22;4089;52.420;13.334;2023-04-24T14:28:37;20.00;55.60
8093;DHT22;4089;52.420;13.334;2023-04-24T14:31:04;20.20;56.70
8093;DHT22;4089;52.420;13.334;2023-04-24T14:33:31;20.60;55.40
8093;DHT22;4089;52.420;13.334;2023-04-24T14:35:58;20.50;56.70
8093;DHT22;4089;52.420;13.334;2023-04-24T14:38:25;20.10;55.70
8093;DHT22;4089;52.420;13.334;2023-04-24T14:40:52;19.60;55.80
8093;DHT22;4089;52.420;13.334;2023-04-24T14:43:33;20.00;55.70
8093;DHT22;4089;52.420;13.334;2023-04-24T14:46:02;19.90;55.40
8093;DHT22;4089;52.420;13.334;2023-04-24T14:48:29;19.60;55.90
8093;DHT22;4089;52.420;13.334;2023-04-24T14:50:56;19.10;55.30
8093;DHT22;4089;52.420;13.334;2023-04-24T14:53:23;18.50;56.40
8093;DHT22;4089;52.420;13.334;2023-04-24T14:55:50;18.20;56.60
8093;DHT22;4089;52.420;13.334;2023-04-24T14:58:17;18.00;56.50
8093;DHT22;4089;52.420;13.334;2023-04-24T15:00:43;18.00;58.50
8093;DHT22;4089;52.420;13.334;2023-04-24T15:03:10;17.90;58.60
8093;DHT22;4089;52.420;13.334;2023-04-24T15:05:37;17.80;59.50
8093;DHT22;4089;52.420;13.334;2023-04-24T15:08:06;17.90;60.60
8093;DHT22;4089;52.420;13.334;2023-04-24T15:10:33;18.20;59.40
8093;DHT22;4089;52.420;13.334;2023-04-24T15:12:59;18.60;57.70
8093;DHT22;4089;52.420;13.334;2023-04-24T15:15:26;19.10;56.60
8093;DHT22;4089;52.420;13.334;2023-04-24T15:17:53;19.60;56.10
8093;DHT22;4089;52.420;13.334;2023-04-24T15:20:20;19.00;54.90
8093;DHT22;4089;52.420;13.334;2023-04-24T15:22:47;18.60;55.80
8093;DHT22;4089;52.420;13.334;2023-04-24T15:25:13;18.20;57.00
8093;DHT22;4089;52.420;13.334;2023-04-24T15:27:44;17.90;57.50
8093;DHT22;4089;52.420;13.334;2023-04-24T15:30:12;17.70;59.00
8093;DHT22;4089;52.420;13.334;2023-04-24T15:32:39;17.50;59.70
8093;DHT22;4089;52.420;13.334;2023-04-24T15:35:06;17.40;58.60
8093;DHT22;4089;52.420;13.334;2023-04-24T15:37:37;17.30;59.30
8093;DHT22;4089;52.420;13.334;2023-04-24T15:40:04;17.20;60.40
8093;DHT22;4089;52.420;13.334;2023-04-24T15:42:34;17.20;61.30
8093;DHT22;4089;52.420;13.334;2023-04-24T15:45:01;17.20;60.50
8093;DHT22;4089;52.420;13.334;2023-04-24T15:47:28;17.00;60.10
8093;DHT22;4089;52.420;13.334;2023-04-24T15:49:55;17.00;60.80
8093;DHT22;4089;52.420;13.334;2023-04-24T15:52:21;17.00;61.40
8093;DHT22;4089;52.420;13.334;2023-04-24T15:54:48;17.00;61.60
8093;DHT22;4089;52.420;13.334;2023-04-24T15:57:15;16.90;61.10
8093;DHT22;4089;52.420;13.334;2023-04-24T15:59:43;16.90;63.80
8093;DHT22;4089;52.420;13.334;2023-04-24T16:02:13;16.80;63.40
8093;DHT22;4089;52.420;13.334;2023-04-24T16:04:49;16.70;63.70
8093;DHT22;4089;52.420;13.334;2023-04-24T16:07:17;16.60;64.80
8093;DHT22;4089;52.420;13.334;2023-04-24T16:09:44;16.50;64.50
8093;DHT22;4089;52.420;13.334;2023-04-24T16:12:11;16.40;64.30